Time;durP1;ratioP1;P1;durP2;ratioP2;P2;SDS_P1;SDS_P2;PMS_P1;PMS_P2;Temp;Humidity;BMP_temperature;BMP_pressure;BME280_temperature;BME280_humidity;BME280_pressure;Samples;Min_cycle;Max_cycle;Signal;HPM_P1;HPM_P2
2022/09/05 00:02:03;;;;;;;;;;;16.00;98.70;;;;;;5095420;28;20271;-83
2022/09/05 00:04:40;;;;;;;;;;;16.00;98.00;;;;;;5095266;28;19916;-81
2022/09/05 00:07:12;;;;;;;;;;;15.90;97.90;;;;;;5095493;28;19951;-84
2022/09/05 00:09:57;;;;;;;;;;;16.00;98.00;;;;;;5096081;28;19983;-82
2022/09/05 00:12:25;;;;;;;;;;;16.00;98.30;;;;;;5095651;28;20007;-81
2022/09/05 00:14:54;;;;;;;;;;;16.00;98.50;;;;;;5096060;28;20392;-82
2022/09/05 00:17:30;;;;;;;;;;;16.00;98.30;;;;;;5094868;28;19985;-83
2022/09/05 00:20:04;;;;;;;;;;;16.00;98.60;;;;;;5095641;28;19954;-82
2022/09/05 00:22:43;;;;;;;;;;;16.00;98.90;;;;;;5095196;28;19908;-82
2022/09/05 00:25:35;;;;;;;;;;;16.00;99.20;;;;;;5094916;28;19920;-79
2022/09/05 00:28:14;;;;;;;;;;;16.00;98.60;;;;;;5094684;28;19912;-83
2022/09/05 00:30:57;;;;;;;;;;;16.00;98.60;;;;;;5094761;28;19908;-82
2022/09/05 00:33:42;;;;;;;;;;;16.00;98.90;;;;;;5095011;28;19908;-83
2022/09/05 00:36:17;;;;;;;;;;;16.00;98.90;;;;;;5095101;28;19908;-82
2022/09/05 00:38:51;;;;;;;;;;;16.10;99.00;;;;;;5076119;28;20280;-81
2022/09/05 00:41:18;;;;;;;;;;;16.10;99.00;;;;;;5095001;28;19947;-82
2022/09/05 00:43:49;;;;;;;;;;;16.30;99.30;;;;;;5094442;28;19916;-82
2022/09/05 00:46:23;;;;;;;;;;;16.40;99.00;;;;;;5094545;28;19919;-86
2022/09/05 00:49:08;;;;;;;;;;;16.60;98.10;;;;;;5095494;28;19911;-82
2022/09/05 00:51:37;;;;;;;;;;;16.70;98.00;;;;;;5096063;28;19915;-82
2022/09/05 00:54:12;;;;;;;;;;;16.70;97.90;;;;;;5095092;28;19961;-82
2022/09/05 00:56:50;;;;;;;;;;;16.90;97.50;;;;;;5095317;28;19908;-82
2022/09/05 00:59:35;;;;;;;;;;;17.00;97.40;;;;;;5077888;28;19919;-85
2022/09/05 01:02:06;;;;;;;;;;;17.10;97.20;;;;;;5099382;28;19966;-86
2022/09/05 01:04:50;;;;;;;;;;;17.20;97.20;;;;;;5098356;28;20022;-83
2022/09/05 01:07:20;;;;;;;;;;;17.30;96.30;;;;;;5094544;28;19923;-84
2022/09/05 01:10:10;;;;;;;;;;;17.30;95.70;;;;;;5094758;28;19931;-87
2022/09/05 01:12:44;;;;;;;;;;;17.30;95.60;;;;;;5095044;28;19915;-83
2022/09/05 01:15:16;;;;;;;;;;;17.40;95.00;;;;;;5094485;28;20012;-84
2022/09/05 01:17:42;;;;;;;;;;;17.40;94.50;;;;;;5093840;28;20010;-83
2022/09/05 01:20:27;;;;;;;;;;;17.50;94.60;;;;;;5077366;28;19908;-82
2022/09/05 01:22:54;;;;;;;;;;;17.50;93.60;;;;;;5077297;28;19976;-82
2022/09/05 01:25:29;;;;;;;;;;;17.60;93.10;;;;;;5095409;28;19912;-86
2022/09/05 01:28:14;;;;;;;;;;;17.60;92.80;;;;;;5094235;28;19912;-82
2022/09/05 01:31:01;;;;;;;;;;;17.60;92.20;;;;;;5095433;28;19961;-83
2022/09/05 01:33:40;;;;;;;;;;;17.70;91.30;;;;;;5083712;28;19931;-80
2022/09/05 01:36:10;;;;;;;;;;;17.80;91.00;;;;;;5095079;28;19915;-84
2022/09/05 01:38:55;;;;;;;;;;;17.90;90.90;;;;;;5094853;28;19908;-87
2022/09/05 01:41:42;;;;;;;;;;;18.00;90.70;;;;;;5095828;28;19908;-81
2022/09/05 01:44:12;;;;;;;;;;;18.10;91.00;;;;;;5095299;28;19916;-83
2022/09/05 01:46:57;;;;;;;;;;;18.10;90.80;;;;;;5095317;28;19915;-83
2022/09/05 01:49:33;;;;;;;;;;;18.20;91.70;;;;;;5094253;28;19915;-81
2022/09/05 01:52:15;;;;;;;;;;;18.40;91.50;;;;;;5095001;28;20322;-82
2022/09/05 01:54:44;;;;;;;;;;;18.50;91.50;;;;;;5095329;28;20314;-78
2022/09/05 01:57:17;;;;;;;;;;;18.60;92.10;;;;;;5094570;28;20440;-81
2022/09/05 01:59:49;;;;;;;;;;;18.70;92.10;;;;;;5094976;28;19908;-78
2022/09/05 02:02:31;;;;;;;;;;;18.80;92.10;;;;;;5094123;28;19999;-85
2022/09/05 02:05:16;;;;;;;;;;;18.80;91.40;;;;;;5093677;28;19916;-79
2022/09/05 02:08:05;;;;;;;;;;;18.90;91.70;;;;;;5077366;28;20117;-81
2022/09/05 02:10:33;;;;;;;;;;;19.00;91.10;;;;;;5095336;28;19912;-81
2022/09/05 02:13:20;;;;;;;;;;;19.20;91.40;;;;;;5094578;28;20277;-82
2022/09/05 02:15:57;;;;;;;;;;;19.30;90.60;;;;;;5093695;28;19995;-82
2022/09/05 02:18:28;;;;;;;;;;;19.10;90.20;;;;;;5095024;28;19924;-80
2022/09/05 02:21:01;;;;;;;;;;;19.10;90.20;;;;;;5093849;28;19998;-80
2022/09/05 02:23:28;;;;;;;;;;;18.90;90.70;;;;;;5093872;28;19944;-81
2022/09/05 02:25:55;;;;;;;;;;;18.70;91.00;;;;;;5093262;28;20399;-82
2022/09/05 02:28:47;;;;;;;;;;;18.70;91.50;;;;;;5093405;28;19908;-83
2022/09/05 02:31:25;;;;;;;;;;;18.70;91.70;;;;;;5069699;28;19908;-82
2022/09/05 02:33:57;;;;;;;;;;;18.90;91.00;;;;;;5093258;28;19912;-83
2022/09/05 02:36:37;;;;;;;;;;;19.40;90.50;;;;;;5092720;28;19961;-83
2022/09/05 02:39:22;;;;;;;;;;;19.90;89.30;;;;;;5074302;28;20272;-82
2022/09/05 02:41:56;;;;;;;;;;;20.40;88.50;;;;;;5093392;28;19908;-81
2022/09/05 02:44:29;;;;;;;;;;;20.40;87.60;;;;;;5093570;28;19916;-84
2022/09/05 02:46:59;;;;;;;;;;;19.80;88.60;;;;;;5092568;28;19911;-83
2022/09/05 02:49:51;;;;;;;;;;;19.60;90.10;;;;;;5092273;28;19908;-82
2022/09/05 02:52:18;;;;;;;;;;;19.30;89.60;;;;;;5088947;28;20361;-83
2022/09/05 02:54:48;;;;;;;;;;;19.00;90.20;;;;;;5093187;28;19912;-82
2022/09/05 02:57:33;;;;;;;;;;;18.90;90.50;;;;;;5095111;28;19915;-82
2022/09/05 03:00:12;;;;;;;;;;;19.10;90.80;;;;;;5096464;28;19912;-83
2022/09/05 03:02:56;;;;;;;;;;;20.00;90.20;;;;;;5092630;28;19908;-81
2022/09/05 03:05:30;;;;;;;;;;;21.10;89.70;;;;;;5075217;28;19920;-84
2022/09/05 03:08:00;;;;;;;;;;;21.80;85.90;;;;;;5093740;28;20007;-82
2022/09/05 03:10:30;;;;;;;;;;;22.50;84.30;;;;;;5092835;28;19915;-84
2022/09/05 03:13:15;;;;;;;;;;;23.20;83.10;;;;;;5094049;28;19998;-86
2022/09/05 03:15:47;;;;;;;;;;;23.80;80.40;;;;;;5093852;28;19908;-84
2022/09/05 03:18:32;;;;;;;;;;;24.30;80.00;;;;;;5092814;28;19920;-85
2022/09/05 03:21:14;;;;;;;;;;;23.70;79.30;;;;;;5093199;28;20388;-84
2022/09/05 03:23:47;;;;;;;;;;;23.10;81.40;;;;;;5074115;28;20287;-83
2022/09/05 03:26:19;;;;;;;;;;;23.00;81.70;;;;;;5091526;28;19908;-84
2022/09/05 03:29:04;;;;;;;;;;;22.30;83.40;;;;;;5072923;28;19916;-86
2022/09/05 03:31:49;;;;;;;;;;;21.70;84.90;;;;;;5075706;28;19931;-83
2022/09/05 03:34:25;;;;;;;;;;;21.10;86.00;;;;;;5096934;28;19916;-84
2022/09/05 03:36:57;;;;;;;;;;;20.60;87.50;;;;;;5097620;28;19908;-85
2022/09/05 03:39:42;;;;;;;;;;;20.20;87.90;;;;;;5097180;28;19908;-84
2022/09/05 03:42:18;;;;;;;;;;;20.30;89.70;;;;;;5098317;28;19915;-85
2022/09/05 03:44:57;;;;;;;;;;;21.60;86.60;;;;;;5100813;28;20432;-83
2022/09/05 03:47:42;;;;;;;;;;;22.30;83.20;;;;;;5098437;28;19915;-85
2022/09/05 03:50:23;;;;;;;;;;;22.30;82.50;;;;;;5097073;28;19912;-82
2022/09/05 03:53:07;;;;;;;;;;;21.80;82.90;;;;;;5096765;28;19908;-84
2022/09/05 03:55:34;;;;;;;;;;;21.40;84.10;;;;;;5097595;28;19909;-85
2022/09/05 03:58:03;;;;;;;;;;;21.00;85.60;;;;;;5096338;28;20288;-82
2022/09/05 04:00:35;;;;;;;;;;;20.70;87.30;;;;;;5096069;28;19909;-83
2022/09/05 04:03:14;;;;;;;;;;;20.30;88.60;;;;;;5096332;28;19908;-83
2022/09/05 04:05:41;;;;;;;;;;;20.10;88.20;;;;;;5098526;28;20016;-84
2022/09/05 04:08:14;;;;;;;;;;;20.00;89.00;;;;;;5095973;28;19916;-86
2022/09/05 04:10:50;;;;;;;;;;;20.30;89.30;;;;;;5077798;28;19908;-82
2022/09/05 04:13:25;;;;;;;;;;;20.80;87.70;;;;;;5095751;28;20559;-84
2022/09/05 04:16:00;;;;;;;;;;;21.70;85.50;;;;;;5077340;28;19909;-83
2022/09/05 04:18:29;;;;;;;;;;;22.70;83.10;;;;;;5095324;28;19920;-84
2022/09/05 04:21:14;;;;;;;;;;;23.40;80.60;;;;;;5077493;28;20417;-85
2022/09/05 04:23:41;;;;;;;;;;;23.60;79.30;;;;;;5095508;28;19916;-83
2022/09/05 04:26:26;;;;;;;;;;;23.00;79.10;;;;;;5095075;28;19915;-84
2022/09/05 04:29:01;;;;;;;;;;;22.50;80.30;;;;;;5098520;28;20360;-84
2022/09/05 04:31:34;;;;;;;;;;;22.10;81.00;;;;;;5079490;28;19909;-82
2022/09/05 04:34:15;;;;;;;;;;;21.70;81.40;;;;;;5098903;28;19995;-82
2022/09/05 04:36:43;;;;;;;;;;;21.20;81.30;;;;;;5096628;28;19977;-84
2022/09/05 04:39:19;;;;;;;;;;;20.60;82.90;;;;;;5096001;28;19966;-82
2022/09/05 04:41:59;;;;;;;;;;;20.40;83.90;;;;;;5096611;28;19915;-83
2022/09/05 04:44:29;;;;;;;;;;;20.70;84.00;;;;;;5078596;28;19916;-82
2022/09/05 04:47:02;;;;;;;;;;;21.00;82.20;;;;;;5095106;28;19908;-85
2022/09/05 04:49:43;;;;;;;;;;;21.40;82.50;;;;;;5094968;28;20006;-82
2022/09/05 04:52:13;;;;;;;;;;;22.10;80.70;;;;;;5095227;28;19908;-79
2022/09/05 04:54:39;;;;;;;;;;;23.00;78.30;;;;;;5096689;28;19908;-82
2022/09/05 04:57:21;;;;;;;;;;;23.40;76.10;;;;;;5095199;28;19955;-83
2022/09/05 05:00:14;;;;;;;;;;;23.20;75.50;;;;;;5094876;28;19908;-83
2022/09/05 05:02:46;;;;;;;;;;;22.70;76.50;;;;;;5091236;28;19912;-84
2022/09/05 05:05:26;;;;;;;;;;;22.80;76.60;;;;;;5094458;28;20442;-82
2022/09/05 05:07:53;;;;;;;;;;;22.90;76.20;;;;;;5094580;28;19970;-83
2022/09/05 05:10:32;;;;;;;;;;;22.70;76.80;;;;;;5094552;28;19908;-84
2022/09/05 05:13:02;;;;;;;;;;;22.50;77.60;;;;;;5094044;28;19908;-85
2022/09/05 05:15:30;;;;;;;;;;;21.90;79.20;;;;;;5094178;28;19908;-81
2022/09/05 05:18:03;;;;;;;;;;;21.10;81.50;;;;;;5094380;28;20019;-81
2022/09/05 05:20:38;;;;;;;;;;;20.50;82.90;;;;;;5094194;28;19908;-81
2022/09/05 05:23:09;;;;;;;;;;;20.50;84.70;;;;;;5094332;28;19969;-83
2022/09/05 05:25:46;;;;;;;;;;;20.90;83.10;;;;;;5077065;28;20387;-83
2022/09/05 05:28:21;;;;;;;;;;;21.80;81.10;;;;;;5094268;28;19962;-80
2022/09/05 05:30:48;;;;;;;;;;;22.50;80.80;;;;;;5093898;28;19912;-82
2022/09/05 05:33:23;;;;;;;;;;;23.50;78.40;;;;;;5075732;28;20360;-82
2022/09/05 05:35:51;;;;;;;;;;;24.10;77.10;;;;;;5075157;28;19914;-82
2022/09/05 05:38:17;;;;;;;;;;;24.30;75.20;;;;;;5093241;28;19919;-80
2022/09/05 05:40:48;;;;;;;;;;;24.40;76.00;;;;;;5093618;28;19912;-81
2022/09/05 05:43:14;;;;;;;;;;;24.80;73.70;;;;;;5093324;28;20397;-77
2022/09/05 05:45:42;;;;;;;;;;;24.70;72.00;;;;;;5092592;28;19912;-78
2022/09/05 05:48:29;;;;;;;;;;;23.80;73.60;;;;;;5092897;28;19908;-81
2022/09/05 05:50:56;;;;;;;;;;;23.50;73.60;;;;;;5072755;28;19915;-80
2022/09/05 05:53:40;;;;;;;;;;;23.70;73.80;;;;;;5077436;28;20257;-80
2022/09/05 05:56:07;;;;;;;;;;;24.00;72.60;;;;;;5093715;28;19908;-80
2022/09/05 05:58:33;;;;;;;;;;;24.40;72.00;;;;;;5094568;28;19908;-78
2022/09/05 06:01:18;;;;;;;;;;;24.40;71.70;;;;;;5076158;28;19912;-85
2022/09/05 06:04:06;;;;;;;;;;;24.30;71.60;;;;;;5093383;28;19920;-77
2022/09/05 06:06:51;;;;;;;;;;;24.30;71.50;;;;;;5093270;28;19908;-77
2022/09/05 06:09:35;;;;;;;;;;;24.00;72.50;;;;;;5091367;28;19920;-81
2022/09/05 06:12:15;;;;;;;;;;;23.10;73.10;;;;;;5072873;28;19939;-79
2022/09/05 06:14:51;;;;;;;;;;;22.00;75.50;;;;;;5088256;28;19958;-80
2022/09/05 06:17:34;;;;;;;;;;;21.00;77.60;;;;;;5092910;28;19927;-82
2022/09/05 06:20:03;;;;;;;;;;;20.20;78.80;;;;;;5082028;28;19908;-85
2022/09/05 06:22:34;;;;;;;;;;;19.50;80.00;;;;;;5076315;28;19908;-84
2022/09/05 06:25:22;;;;;;;;;;;19.00;81.70;;;;;;5107601;28;19980;-82
2022/09/05 06:27:49;;;;;;;;;;;19.00;83.50;;;;;;5098881;28;19912;-85
2022/09/05 06:30:18;;;;;;;;;;;19.50;82.10;;;;;;5094056;28;19912;-79
2022/09/05 06:32:46;;;;;;;;;;;20.20;80.60;;;;;;5093104;28;19915;-82
2022/09/05 06:35:31;;;;;;;;;;;20.40;80.00;;;;;;5091878;28;19916;-80
2022/09/05 06:38:15;;;;;;;;;;;20.10;81.20;;;;;;5092251;28;20360;-78
2022/09/05 06:41:00;;;;;;;;;;;19.50;83.00;;;;;;5091956;28;19908;-79
2022/09/05 06:43:50;;;;;;;;;;;19.00;84.50;;;;;;5091937;28;20376;-78
2022/09/05 06:46:35;;;;;;;;;;;18.50;85.80;;;;;;5045804;28;19912;-79
2022/09/05 06:49:05;;;;;;;;;;;18.30;86.90;;;;;;5091689;28;19934;-81
2022/09/05 06:51:36;;;;;;;;;;;18.20;88.30;;;;;;5095068;28;19920;-82
2022/09/05 06:54:03;;;;;;;;;;;17.90;89.30;;;;;;5093225;28;19908;-81
2022/09/05 06:56:56;;;;;;;;;;;17.70;90.10;;;;;;5077970;28;19909;-87
2022/09/05 06:59:40;;;;;;;;;;;17.50;90.00;;;;;;5063626;28;19909;-84
2022/09/05 07:02:17;;;;;;;;;;;17.30;90.50;;;;;;5074750;28;20529;-79
2022/09/05 07:04:51;;;;;;;;;;;17.10;90.80;;;;;;5078689;28;19939;-79
2022/09/05 07:07:23;;;;;;;;;;;16.90;91.00;;;;;;5102881;28;20378;-77
2022/09/05 07:10:06;;;;;;;;;;;16.90;91.00;;;;;;5100255;28;19952;-79
2022/09/05 07:12:56;;;;;;;;;;;16.70;91.40;;;;;;5098414;28;19908;-79
2022/09/05 07:15:44;;;;;;;;;;;16.50;91.20;;;;;;5098609;28;19919;-77
2022/09/05 07:18:30;;;;;;;;;;;16.40;91.30;;;;;;5098504;28;20447;-77
2022/09/05 07:21:00;;;;;;;;;;;16.30;91.40;;;;;;5098435;28;19908;-78
2022/09/05 07:23:30;;;;;;;;;;;16.20;91.20;;;;;;5098851;28;19977;-79
2022/09/05 07:25:57;;;;;;;;;;;16.10;91.50;;;;;;5100553;28;19965;-83
2022/09/05 07:28:24;;;;;;;;;;;16.00;91.40;;;;;;5099165;28;19961;-82
2022/09/05 07:31:05;;;;;;;;;;;15.90;91.60;;;;;;5099024;28;19931;-79
2022/09/05 07:33:34;;;;;;;;;;;15.90;90.80;;;;;;5100052;28;19908;-79
2022/09/05 07:36:27;;;;;;;;;;;15.80;91.10;;;;;;5100346;28;19908;-81
2022/09/05 07:38:57;;;;;;;;;;;15.70;91.30;;;;;;5096154;28;19918;-86
2022/09/05 07:41:31;;;;;;;;;;;15.70;91.50;;;;;;5080619;28;19955;-81
2022/09/05 07:44:02;;;;;;;;;;;15.70;91.80;;;;;;5098096;28;19923;-80
2022/09/05 07:46:36;;;;;;;;;;;15.60;92.10;;;;;;5098973;28;19915;-80
2022/09/05 07:49:08;;;;;;;;;;;15.60;92.30;;;;;;5098135;28;20474;-80
2022/09/05 07:51:36;;;;;;;;;;;15.60;92.60;;;;;;5098454;28;20302;-80
2022/09/05 07:54:30;;;;;;;;;;;15.50;92.60;;;;;;5098999;28;20322;-77
2022/09/05 07:57:02;;;;;;;;;;;15.50;92.60;;;;;;5096509;28;19969;-75
2022/09/05 07:59:33;;;;;;;;;;;15.40;92.80;;;;;;5097799;28;19912;-77
2022/09/05 08:02:01;;;;;;;;;;;15.40;92.90;;;;;;5098880;28;20353;-80
2022/09/05 08:04:35;;;;;;;;;;;15.30;92.70;;;;;;5080917;28;19916;-78
2022/09/05 08:07:28;;;;;;;;;;;15.20;92.50;;;;;;5098810;28;19915;-79
2022/09/05 08:09:58;;;;;;;;;;;15.20;92.50;;;;;;5083967;28;19916;-78
2022/09/05 08:12:47;;;;;;;;;;;15.10;92.40;;;;;;5099356;28;19908;-82
2022/09/05 08:15:18;;;;;;;;;;;15.10;92.40;;;;;;5095056;28;20367;-79
2022/09/05 08:17:47;;;;;;;;;;;15.10;92.40;;;;;;5095535;28;19943;-78
2022/09/05 08:20:14;;;;;;;;;;;15.10;92.50;;;;;;5095903;28;20395;-80
2022/09/05 08:22:57;;;;;;;;;;;15.10;92.60;;;;;;5094758;28;19912;-83
2022/09/05 08:25:29;;;;;;;;;;;15.10;92.70;;;;;;5093941;28;19959;-76
2022/09/05 08:28:05;;;;;;;;;;;15.10;92.80;;;;;;5059771;28;19913;-81
2022/09/05 08:30:36;;;;;;;;;;;15.10;93.00;;;;;;5094000;28;20327;-78
2022/09/05 08:33:06;;;;;;;;;;;15.00;93.30;;;;;;5093742;28;20019;-78
2022/09/05 08:35:38;;;;;;;;;;;15.00;93.60;;;;;;5093870;28;19912;-80
2022/09/05 08:38:06;;;;;;;;;;;15.00;93.90;;;;;;5093591;28;20022;-79
2022/09/05 08:40:36;;;;;;;;;;;15.00;94.40;;;;;;5093302;28;19920;-78
2022/09/05 08:43:14;;;;;;;;;;;15.00;94.30;;;;;;5094259;28;20279;-77
2022/09/05 08:45:50;;;;;;;;;;;15.00;94.30;;;;;;5094257;28;20367;-78
2022/09/05 08:48:34;;;;;;;;;;;15.00;94.60;;;;;;5093768;28;20002;-76
2022/09/05 08:51:01;;;;;;;;;;;14.90;94.50;;;;;;5094022;28;19912;-80
2022/09/05 08:53:46;;;;;;;;;;;14.90;94.60;;;;;;5093705;28;20356;-75
2022/09/05 08:56:17;;;;;;;;;;;14.90;95.10;;;;;;5093929;28;20411;-80
2022/09/05 08:58:50;;;;;;;;;;;14.90;95.30;;;;;;5094543;28;19923;-80
2022/09/05 09:01:30;;;;;;;;;;;14.90;96.20;;;;;;5094104;28;19920;-82
2022/09/05 09:03:57;;;;;;;;;;;14.80;95.80;;;;;;5095508;28;19919;-81
2022/09/05 09:06:37;;;;;;;;;;;14.80;95.90;;;;;;5077759;28;19912;-78
2022/09/05 09:09:10;;;;;;;;;;;14.80;95.80;;;;;;5094831;28;19908;-79
2022/09/05 09:11:55;;;;;;;;;;;14.80;95.90;;;;;;5093953;28;19912;-76
2022/09/05 09:14:35;;;;;;;;;;;14.70;95.90;;;;;;5094276;28;20289;-82
2022/09/05 09:17:20;;;;;;;;;;;14.80;96.00;;;;;;5093028;28;20318;-81
2022/09/05 09:19:52;;;;;;;;;;;14.70;95.90;;;;;;5094303;28;19916;-79
2022/09/05 09:22:37;;;;;;;;;;;14.70;96.00;;;;;;5093853;28;19912;-81
2022/09/05 09:25:09;;;;;;;;;;;14.70;95.80;;;;;;5093877;28;20364;-77
2022/09/05 09:27:36;;;;;;;;;;;14.60;95.60;;;;;;5093309;28;19951;-77
2022/09/05 09:30:05;;;;;;;;;;;14.60;95.70;;;;;;5092126;28;19969;-82
2022/09/05 09:32:41;;;;;;;;;;;14.70;96.00;;;;;;5093648;28;19908;-78
2022/09/05 09:35:10;;;;;;;;;;;14.60;96.20;;;;;;5093225;28;20288;-75
2022/09/05 09:37:37;;;;;;;;;;;14.60;96.40;;;;;;5085453;28;20003;-80
2022/09/05 09:40:19;;;;;;;;;;;14.60;96.50;;;;;;5093073;28;19950;-83
2022/09/05 09:42:56;;;;;;;;;;;14.60;96.70;;;;;;5085095;28;19912;-82
2022/09/05 09:45:24;;;;;;;;;;;14.60;96.80;;;;;;5093121;28;20015;-78
2022/09/05 09:47:53;;;;;;;;;;;14.60;97.10;;;;;;5092209;28;19920;-80
2022/09/05 09:50:23;;;;;;;;;;;14.60;96.80;;;;;;5092361;28;20018;-84
2022/09/05 09:52:56;;;;;;;;;;;14.60;96.80;;;;;;5093010;28;19935;-79
2022/09/05 09:55:31;;;;;;;;;;;14.60;96.80;;;;;;5092972;28;19962;-77
2022/09/05 09:58:16;;;;;;;;;;;14.60;97.10;;;;;;5092562;28;19913;-85
2022/09/05 10:00:49;;;;;;;;;;;14.60;96.90;;;;;;5092531;28;19912;-80
2022/09/05 10:03:34;;;;;;;;;;;14.50;97.00;;;;;;5074432;28;19961;-80
2022/09/05 10:06:04;;;;;;;;;;;14.50;97.00;;;;;;5092629;28;19919;-77
2022/09/05 10:08:49;;;;;;;;;;;14.50;96.80;;;;;;5091986;28;19912;-81
2022/09/05 10:11:15;;;;;;;;;;;14.50;96.70;;;;;;5091831;28;19912;-76
2022/09/05 10:13:48;;;;;;;;;;;14.40;96.70;;;;;;5092095;28;20356;-77
2022/09/05 10:16:26;;;;;;;;;;;14.50;96.90;;;;;;5087270;28;19912;-77
2022/09/05 10:18:53;;;;;;;;;;;14.40;97.00;;;;;;5086492;28;19916;-80
2022/09/05 10:21:38;;;;;;;;;;;14.40;97.20;;;;;;5092847;28;19912;-77
2022/09/05 10:24:05;;;;;;;;;;;14.40;97.10;;;;;;5092827;28;19916;-77
2022/09/05 10:26:37;;;;;;;;;;;14.40;97.00;;;;;;5092377;28;19908;-77
2022/09/05 10:29:06;;;;;;;;;;;14.40;97.10;;;;;;5091700;28;19963;-77
2022/09/05 10:31:55;;;;;;;;;;;14.30;97.10;;;;;;5094006;28;19912;-80
2022/09/05 10:34:22;;;;;;;;;;;14.30;96.90;;;;;;5092341;28;19920;-76
2022/09/05 10:36:57;;;;;;;;;;;14.30;96.80;;;;;;5091731;28;19957;-82
2022/09/05 10:39:34;;;;;;;;;;;14.30;96.70;;;;;;5091588;28;19908;-78
2022/09/05 10:42:05;;;;;;;;;;;14.40;96.50;;;;;;5092830;28;19930;-84
2022/09/05 10:44:45;;;;;;;;;;;14.40;96.70;;;;;;5092797;28;19916;-83
2022/09/05 10:47:17;;;;;;;;;;;14.50;97.00;;;;;;5092251;28;19912;-78
2022/09/05 10:49:47;;;;;;;;;;;14.50;98.00;;;;;;5091588;28;20003;-78
2022/09/05 10:52:27;;;;;;;;;;;14.70;98.70;;;;;;5092266;28;19909;-83
2022/09/05 10:54:59;;;;;;;;;;;14.70;99.00;;;;;;5069359;28;19912;-78
2022/09/05 10:57:50;;;;;;;;;;;14.70;99.10;;;;;;5091865;28;19942;-83
2022/09/05 11:00:50;;;;;;;;;;;14.60;99.20;;;;;;5091079;28;19916;-77
2022/09/05 11:03:21;;;;;;;;;;;14.60;99.40;;;;;;5030277;28;19912;-83
2022/09/05 11:05:52;;;;;;;;;;;14.50;99.20;;;;;;5090892;28;19912;-85
2022/09/05 11:08:18;;;;;;;;;;;14.20;98.90;;;;;;5091683;28;19908;-80
2022/09/05 11:10:45;;;;;;;;;;;14.30;98.90;;;;;;5091697;28;19915;-82
2022/09/05 11:13:30;;;;;;;;;;;14.30;99.10;;;;;;5090315;28;20418;-82
2022/09/05 11:16:14;;;;;;;;;;;14.30;99.10;;;;;;5083112;28;19920;-83
2022/09/05 11:18:53;;;;;;;;;;;14.20;99.00;;;;;;5080540;28;20304;-80
2022/09/05 11:21:45;;;;;;;;;;;14.30;99.20;;;;;;5091987;28;19951;-84
2022/09/05 11:24:30;;;;;;;;;;;14.20;99.40;;;;;;5083356;28;19916;-80
2022/09/05 11:26:59;;;;;;;;;;;14.10;99.60;;;;;;5083030;28;20372;-82
2022/09/05 11:29:34;;;;;;;;;;;14.10;99.80;;;;;;5082823;28;19954;-80
2022/09/05 11:32:19;;;;;;;;;;;14.00;99.80;;;;;;5083283;28;19956;-81
2022/09/05 11:34:54;;;;;;;;;;;14.00;99.90;;;;;;5087771;28;19958;-82
2022/09/05 11:37:27;;;;;;;;;;;14.00;99.90;;;;;;5084559;28;19947;-80
2022/09/05 11:40:11;;;;;;;;;;;13.90;99.90;;;;;;5082054;28;19913;-80
2022/09/05 11:42:50;;;;;;;;;;;13.80;99.90;;;;;;5083810;28;19948;-81
2022/09/05 11:45:26;;;;;;;;;;;13.70;99.90;;;;;;5085813;28;20015;-80
2022/09/05 11:48:15;;;;;;;;;;;13.70;99.90;;;;;;5086711;28;19912;-82
2022/09/05 11:51:01;;;;;;;;;;;13.60;99.90;;;;;;5078457;28;19916;-82
2022/09/05 11:53:33;;;;;;;;;;;13.60;99.90;;;;;;5087815;28;19912;-82
2022/09/05 11:56:06;;;;;;;;;;;13.60;99.90;;;;;;5086531;28;19913;-82
2022/09/05 11:58:35;;;;;;;;;;;13.70;99.90;;;;;;5085945;28;19909;-80
2022/09/05 12:01:20;;;;;;;;;;;13.60;99.90;;;;;;5081867;28;19919;-84
2022/09/05 12:03:59;;;;;;;;;;;13.60;99.90;;;;;;5086489;28;20373;-81
2022/09/05 12:06:28;;;;;;;;;;;13.60;99.90;;;;;;5082110;28;20314;-80
2022/09/05 12:09:01;;;;;;;;;;;13.50;99.90;;;;;;5083149;28;19929;-81
2022/09/05 12:11:31;;;;;;;;;;;13.50;99.90;;;;;;5087644;28;19940;-80
2022/09/05 12:14:08;;;;;;;;;;;13.40;99.90;;;;;;5084275;28;19912;-81
2022/09/05 12:16:43;;;;;;;;;;;13.40;99.90;;;;;;5093162;28;19916;-83
2022/09/05 12:19:28;;;;;;;;;;;13.40;99.90;;;;;;5085712;28;19959;-81
2022/09/05 12:22:12;;;;;;;;;;;13.30;99.90;;;;;;5091420;28;19961;-81
2022/09/05 12:24:53;;;;;;;;;;;13.20;99.90;;;;;;5092747;28;19962;-82
2022/09/05 12:27:23;;;;;;;;;;;13.20;99.90;;;;;;5092674;28;20327;-82
2022/09/05 12:29:56;;;;;;;;;;;13.10;99.90;;;;;;5083976;28;20501;-81
2022/09/05 12:32:24;;;;;;;;;;;13.00;99.90;;;;;;5083943;28;19951;-80
2022/09/05 12:34:52;;;;;;;;;;;13.00;99.90;;;;;;5082674;28;19912;-80
2022/09/05 12:37:25;;;;;;;;;;;12.90;99.90;;;;;;5084571;28;19995;-84
2022/09/05 12:40:00;;;;;;;;;;;12.90;99.90;;;;;;5083735;28;20365;-83
2022/09/05 12:42:33;;;;;;;;;;;12.90;99.90;;;;;;5084949;28;19912;-82
2022/09/05 12:45:08;;;;;;;;;;;12.90;99.90;;;;;;5085127;28;19924;-82
2022/09/05 12:47:51;;;;;;;;;;;12.80;99.90;;;;;;5064407;28;19908;-80
2022/09/05 12:50:18;;;;;;;;;;;12.80;99.90;;;;;;5081780;28;20116;-80
2022/09/05 12:52:48;;;;;;;;;;;12.80;99.90;;;;;;5091932;28;19912;-80
2022/09/05 12:55:21;;;;;;;;;;;12.70;99.90;;;;;;5082155;28;19916;-80
2022/09/05 12:57:49;;;;;;;;;;;12.70;99.90;;;;;;5082387;28;19965;-80
2022/09/05 13:00:20;;;;;;;;;;;12.70;99.90;;;;;;5082391;28;19908;-82
2022/09/05 13:02:57;;;;;;;;;;;12.60;99.90;;;;;;5089250;28;20021;-81
2022/09/05 13:05:41;;;;;;;;;;;12.70;99.90;;;;;;5083225;28;19916;-85
2022/09/05 13:08:09;;;;;;;;;;;12.60;99.90;;;;;;5080879;28;20357;-78
2022/09/05 13:10:39;;;;;;;;;;;12.60;99.90;;;;;;5081529;28;20054;-77
2022/09/05 13:13:14;;;;;;;;;;;12.60;99.90;;;;;;5085727;28;20027;-81
2022/09/05 13:15:42;;;;;;;;;;;12.60;99.90;;;;;;5083786;28;19915;-78
2022/09/05 13:18:17;;;;;;;;;;;12.60;99.90;;;;;;5085343;28;19935;-80
2022/09/05 13:20:50;;;;;;;;;;;12.60;99.90;;;;;;5082635;28;19912;-80
2022/09/05 13:23:37;;;;;;;;;;;12.70;99.90;;;;;;5068957;28;20357;-81
2022/09/05 13:26:13;;;;;;;;;;;12.70;99.90;;;;;;5085103;28;19912;-80
2022/09/05 13:28:50;;;;;;;;;;;12.80;99.90;;;;;;5083365;28;19991;-80
2022/09/05 13:31:39;;;;;;;;;;;12.70;99.90;;;;;;5080406;28;19939;-80
2022/09/05 13:34:16;;;;;;;;;;;12.80;99.90;;;;;;5085775;28;20007;-82
2022/09/05 13:37:10;;;;;;;;;;;12.70;99.90;;;;;;5082878;28;20449;-83
2022/09/05 13:39:41;;;;;;;;;;;12.70;99.90;;;;;;5051140;28;20396;-83
2022/09/05 13:42:11;;;;;;;;;;;12.70;99.90;;;;;;5086689;28;19912;-81
2022/09/05 13:44:41;;;;;;;;;;;12.70;99.90;;;;;;5086337;28;19987;-79
2022/09/05 13:47:13;;;;;;;;;;;12.60;99.90;;;;;;5080893;28;20256;-84
2022/09/05 13:49:49;;;;;;;;;;;12.60;99.90;;;;;;5082692;28;20380;-81
2022/09/05 13:52:24;;;;;;;;;;;12.60;99.90;;;;;;5092521;28;19912;-80
2022/09/05 13:55:00;;;;;;;;;;;12.60;99.90;;;;;;5091792;28;19915;-80
2022/09/05 13:57:40;;;;;;;;;;;12.50;99.90;;;;;;5092575;28;19908;-79
2022/09/05 14:00:11;;;;;;;;;;;12.50;99.90;;;;;;5092747;28;20360;-82
2022/09/05 14:03:07;;;;;;;;;;;12.50;99.90;;;;;;5092349;28;20361;-80
2022/09/05 14:05:45;;;;;;;;;;;12.50;99.90;;;;;;5092100;28;19920;-80
2022/09/05 14:08:16;;;;;;;;;;;12.50;99.90;;;;;;5092536;28;19912;-82
2022/09/05 14:10:43;;;;;;;;;;;12.40;99.90;;;;;;5092367;28;19908;-81
2022/09/05 14:13:30;;;;;;;;;;;12.40;99.90;;;;;;5094350;28;20011;-80
2022/09/05 14:16:11;;;;;;;;;;;12.40;99.90;;;;;;5036241;28;19916;-82
2022/09/05 14:21:35;;;;;;;;;;;12.40;99.90;;;;;;5040623;28;19916;-82
2022/09/05 14:24:11;;;;;;;;;;;12.40;99.90;;;;;;5092196;28;19923;-81
2022/09/05 14:26:57;;;;;;;;;;;12.30;99.90;;;;;;5091787;28;20356;-81
2022/09/05 14:29:36;;;;;;;;;;;12.40;99.90;;;;;;5091790;28;20493;-80
2022/09/05 14:32:16;;;;;;;;;;;12.40;99.90;;;;;;5091028;28;20402;-82
2022/09/05 14:34:55;;;;;;;;;;;12.40;99.90;;;;;;5091622;28;19919;-82
2022/09/05 14:37:31;;;;;;;;;;;12.40;99.90;;;;;;5091692;28;19908;-81
2022/09/05 14:40:16;;;;;;;;;;;12.40;99.90;;;;;;5091754;28;20367;-80
2022/09/05 14:43:05;;;;;;;;;;;12.30;99.90;;;;;;5092123;28;20288;-81
2022/09/05 14:45:47;;;;;;;;;;;12.30;99.90;;;;;;5092261;28;20360;-80
2022/09/05 14:48:14;;;;;;;;;;;12.20;99.90;;;;;;5091663;28;19912;-82
2022/09/05 14:50:48;;;;;;;;;;;12.10;99.90;;;;;;5073404;28;19923;-82
2022/09/05 14:53:19;;;;;;;;;;;12.20;99.90;;;;;;5091770;28;19947;-80
2022/09/05 14:55:58;;;;;;;;;;;12.10;99.90;;;;;;5091599;28;20329;-80
2022/09/05 14:58:26;;;;;;;;;;;12.00;99.90;;;;;;5091924;28;20381;-80
2022/09/05 15:01:05;;;;;;;;;;;12.00;99.90;;;;;;5091863;28;19913;-81
2022/09/05 15:03:39;;;;;;;;;;;11.90;99.90;;;;;;5091437;28;19980;-81
2022/09/05 15:06:13;;;;;;;;;;;11.90;99.90;;;;;;5090993;28;19916;-81
2022/09/05 15:08:40;;;;;;;;;;;11.90;99.90;;;;;;5090859;28;19919;-84
2022/09/05 15:11:10;;;;;;;;;;;11.90;99.90;;;;;;5091492;28;19956;-80